Time,TemperatureF,DewpointF,PressureIn,WindDirection,WindDirectionDegrees,WindSpeedMPH,WindSpeedGustMPH,Humidity,HourlyPrecipIn,Conditions,Clouds,dailyrainin,SolarRadiationWatts/m^2,SoftwareType,DateUTC
2013-01-10 00:02:00,17.0,2.0,-100.00,NW,312,3.0,5.0,51,0.00,,,0.00,0.000000,,2013-01-10 07:02:00,
2013-01-10 01:33:00,11.0,1.0,-100.00,West,277,0.0,4.0,64,-99.99,,,0.00,0.000000,,2013-01-10 08:33:00,
2013-01-10 01:42:00,11.0,1.0,-100.00,West,277,0.0,4.0,64,-99.99,,,0.00,0.000000,,2013-01-10 08:42:00,
2013-01-10 01:53:00,11.0,1.0,-100.00,West,277,0.0,4.0,64,-99.99,,,0.00,0.000000,,2013-01-10 08:53:00,
2013-01-10 02:02:00,11.0,1.0,-100.00,West,277,0.0,4.0,64,-99.99,,,0.00,0.000000,,2013-01-10 09:02:00,
2013-01-10 02:32:00,11.0,1.0,-100.00,NW,319,3.0,4.0,63,0.00,,,0.00,0.000000,,2013-01-10 09:32:00,
2013-01-10 02:43:00,11.0,1.0,-100.00,NW,319,3.0,4.0,63,0.00,,,0.00,0.000000,,2013-01-10 09:43:00,
2013-01-10 02:52:00,11.0,1.0,-100.00,NW,319,3.0,4.0,63,0.00,,,0.00,0.000000,,2013-01-10 09:52:00,
2013-01-10 03:03:00,11.0,1.0,-100.00,NW,319,3.0,4.0,63,0.00,,,0.00,0.000000,,2013-01-10 10:03:00,
2013-01-10 03:33:00,8.0,0.0,-100.00,WNW,299,1.0,6.0,69,0.00,,,0.00,0.000000,,2013-01-10 10:33:00,
2013-01-10 03:42:00,8.0,0.0,-100.00,WNW,299,1.0,6.0,69,0.00,,,0.00,0.000000,,2013-01-10 10:42:00,
2013-01-10 03:52:00,8.0,0.0,-100.00,WNW,299,1.0,6.0,69,0.00,,,0.00,0.000000,,2013-01-10 10:52:00,
2013-01-10 04:02:00,8.0,0.0,-100.00,WNW,299,1.0,6.0,69,0.00,,,0.00,0.000000,,2013-01-10 11:02:00,
2013-01-10 04:33:00,7.0,-1.0,-100.00,WNW,302,2.0,5.0,70,0.00,,,0.00,0.000000,,2013-01-10 11:33:00,
2013-01-10 04:43:00,7.0,-1.0,-100.00,WNW,302,2.0,5.0,70,0.00,,,0.00,0.000000,,2013-01-10 11:43:00,
2013-01-10 04:53:00,7.0,-1.0,-100.00,WNW,302,2.0,5.0,70,0.00,,,0.00,0.000000,,2013-01-10 11:53:00,
2013-01-10 05:03:00,7.0,-1.0,-100.00,WNW,302,2.0,5.0,70,0.00,,,0.00,0.000000,,2013-01-10 12:03:00,
2013-01-10 07:33:00,7.0,-1.0,-100.00,WNW,297,2.0,4.0,69,-99.99,,,0.00,0.000000,,2013-01-10 14:33:00,
2013-01-10 07:43:00,7.0,-1.0,-100.00,WNW,297,2.0,4.0,69,-99.99,,,0.00,0.000000,,2013-01-10 14:43:00,
2013-01-10 07:53:00,7.0,-1.0,-100.00,WNW,297,2.0,4.0,69,-99.99,,,0.00,0.000000,,2013-01-10 14:53:00,
2013-01-10 08:03:00,7.0,-1.0,-100.00,WNW,297,2.0,4.0,69,-99.99,,,0.00,0.000000,,2013-01-10 15:03:00,
2013-01-10 08:33:00,9.0,0.0,-100.00,NNW,335,1.0,5.0,65,0.00,,,0.00,18.000000,,2013-01-10 15:33:00,
2013-01-10 08:43:00,9.0,0.0,-100.00,NNW,335,1.0,5.0,65,0.00,,,0.00,18.000000,,2013-01-10 15:43:00,
2013-01-10 08:53:00,9.0,0.0,-100.00,NNW,335,1.0,5.0,65,0.00,,,0.00,18.000000,,2013-01-10 15:53:00,
2013-01-10 09:02:00,9.0,0.0,-100.00,NNW,335,1.0,5.0,65,0.00,,,0.00,18.000000,,2013-01-10 16:02:00,
2013-01-10 09:33:00,14.0,1.0,-100.00,North,8,2.0,3.0,56,0.00,,,0.00,116.000000,,2013-01-10 16:33:00,
2013-01-10 09:43:00,14.0,1.0,-100.00,North,8,2.0,3.0,56,0.00,,,0.00,116.000000,,2013-01-10 16:43:00,
2013-01-10 09:53:00,14.0,1.0,-100.00,North,8,2.0,3.0,56,0.00,,,0.00,116.000000,,2013-01-10 16:53:00,
2013-01-10 10:03:00,14.0,1.0,-100.00,North,8,2.0,3.0,56,0.00,,,0.00,116.000000,,2013-01-10 17:03:00,
2013-01-10 10:33:00,20.0,3.0,-100.00,NE,37,1.0,3.0,47,0.00,,,0.00,178.000000,,2013-01-10 17:33:00,
2013-01-10 10:43:00,20.0,3.0,-100.00,NE,37,1.0,3.0,47,0.00,,,0.00,178.000000,,2013-01-10 17:43:00,
2013-01-10 10:53:00,20.0,3.0,-100.00,NE,37,1.0,3.0,47,0.00,,,0.00,178.000000,,2013-01-10 17:53:00,
2013-01-10 11:03:00,20.0,3.0,-100.00,NE,37,1.0,3.0,47,0.00,,,0.00,178.000000,,2013-01-10 18:03:00,
2013-01-10 11:33:00,26.0,7.0,-100.00,ESE,104,2.0,5.0,43,0.00,,,0.00,308.000000,,2013-01-10 18:33:00,
2013-01-10 11:43:00,26.0,7.0,-100.00,ESE,104,2.0,5.0,43,0.00,,,0.00,308.000000,,2013-01-10 18:43:00,
2013-01-10 11:53:00,26.0,7.0,-100.00,ESE,104,2.0,5.0,43,0.00,,,0.00,308.000000,,2013-01-10 18:53:00,
2013-01-10 12:03:00,26.0,7.0,-100.00,ESE,104,2.0,5.0,43,0.00,,,0.00,308.000000,,2013-01-10 19:03:00,
2013-01-10 12:33:00,31.0,2.0,-100.00,SSE,161,5.0,8.0,28,0.00,,,-99.99,477.000000,,2013-01-10 19:33:00,
2013-01-10 12:43:00,31.0,2.0,-100.00,SSE,161,5.0,8.0,28,0.00,,,-99.99,477.000000,,2013-01-10 19:43:00,
2013-01-10 12:53:00,31.0,2.0,-100.00,SSE,161,5.0,8.0,28,0.00,,,-99.99,477.000000,,2013-01-10 19:53:00,
2013-01-10 13:03:00,31.0,2.0,-100.00,SSE,161,5.0,8.0,28,0.00,,,-99.99,477.000000,,2013-01-10 20:03:00,
2013-01-10 13:33:00,35.0,2.0,-100.00,SE,125,3.0,10.0,24,0.00,,,0.00,446.000000,,2013-01-10 20:33:00,
2013-01-10 13:43:00,35.0,2.0,-100.00,SE,125,3.0,10.0,24,0.00,,,0.00,446.000000,,2013-01-10 20:43:00,
2013-01-10 13:53:00,35.0,2.0,-100.00,SE,125,3.0,10.0,24,0.00,,,0.00,446.000000,,2013-01-10 20:53:00,
2013-01-10 14:03:00,35.0,2.0,-100.00,SE,125,3.0,10.0,24,0.00,,,0.00,446.000000,,2013-01-10 21:03:00,
2013-01-10 14:33:00,39.0,-5.0,-100.00,SSW,209,6.0,14.0,15,0.00,,,0.00,342.000000,,2013-01-10 21:33:00,
2013-01-10 14:43:00,39.0,-5.0,-100.00,SSW,209,6.0,14.0,15,0.00,,,0.00,342.000000,,2013-01-10 21:43:00,
2013-01-10 14:53:00,39.0,-5.0,-100.00,SSW,209,6.0,14.0,15,0.00,,,0.00,342.000000,,2013-01-10 21:53:00,
2013-01-10 15:03:00,39.0,-5.0,-100.00,SSW,209,6.0,14.0,15,0.00,,,0.00,342.000000,,2013-01-10 22:03:00,
2013-01-10 15:34:00,38.0,-3.0,-100.00,South,175,6.0,14.0,17,0.00,,,0.00,315.000000,,2013-01-10 22:34:00,
2013-01-10 15:44:00,38.0,-3.0,-100.00,South,175,6.0,14.0,17,0.00,,,0.00,315.000000,,2013-01-10 22:44:00,
2013-01-10 16:02:00,38.0,-3.0,-100.00,South,175,6.0,14.0,17,0.00,,,0.00,315.000000,,2013-01-10 23:02:00,
2013-01-10 16:33:00,33.0,-1.0,-100.00,SSE,153,4.0,13.0,23,0.00,,,0.00,215.000000,,2013-01-10 23:33:00,
2013-01-10 16:43:00,33.0,-1.0,-100.00,SSE,153,4.0,13.0,23,0.00,,,0.00,215.000000,,2013-01-10 23:43:00,
2013-01-10 16:53:00,33.0,-1.0,-100.00,SSE,153,4.0,13.0,23,0.00,,,0.00,215.000000,,2013-01-10 23:53:00,
2013-01-10 17:03:00,33.0,-1.0,-100.00,SSE,153,4.0,13.0,23,0.00,,,0.00,215.000000,,2013-01-11 00:03:00,
2013-01-10 17:33:00,27.0,0.0,-100.00,South,178,4.0,14.0,31,0.00,,,0.00,27.000000,,2013-01-11 00:33:00,
2013-01-10 17:43:00,27.0,0.0,-100.00,South,178,4.0,14.0,31,0.00,,,0.00,27.000000,,2013-01-11 00:43:00,
2013-01-10 17:53:00,27.0,0.0,-100.00,South,178,4.0,14.0,31,0.00,,,0.00,27.000000,,2013-01-11 00:53:00,
2013-01-10 18:03:00,27.0,0.0,-100.00,South,178,4.0,14.0,31,0.00,,,0.00,27.000000,,2013-01-11 01:03:00,
2013-01-10 18:34:00,25.0,0.0,-100.00,SE,132,4.0,7.0,33,0.00,,,0.00,0.000000,,2013-01-11 01:34:00,
2013-01-10 18:43:00,25.0,0.0,-100.00,SE,132,4.0,7.0,33,0.00,,,0.00,0.000000,,2013-01-11 01:43:00,
2013-01-10 18:53:00,25.0,0.0,-100.00,SE,132,4.0,7.0,33,0.00,,,0.00,0.000000,,2013-01-11 01:53:00,
2013-01-10 19:03:00,25.0,0.0,-100.00,SE,132,4.0,7.0,33,0.00,,,0.00,0.000000,,2013-01-11 02:03:00,
2013-01-10 19:33:00,22.0,0.0,-100.00,ESE,119,2.0,8.0,38,0.00,,,0.00,0.000000,,2013-01-11 02:33:00,
2013-01-10 19:43:00,22.0,0.0,-100.00,ESE,119,2.0,8.0,38,0.00,,,0.00,0.000000,,2013-01-11 02:43:00,
2013-01-10 19:54:00,22.0,0.0,-100.00,ESE,119,2.0,8.0,38,0.00,,,0.00,0.000000,,2013-01-11 02:54:00,
2013-01-10 20:02:00,22.0,0.0,-100.00,ESE,119,2.0,8.0,38,0.00,,,0.00,0.000000,,2013-01-11 03:02:00,
2013-01-10 20:33:00,20.0,1.0,-100.00,SW,232,2.0,7.0,43,0.00,,,0.00,0.000000,,2013-01-11 03:33:00,
2013-01-10 20:43:00,20.0,1.0,-100.00,SW,232,2.0,7.0,43,0.00,,,0.00,0.000000,,2013-01-11 03:43:00,
2013-01-10 20:53:00,20.0,1.0,-100.00,SW,232,2.0,7.0,43,0.00,,,0.00,0.000000,,2013-01-11 03:53:00,
2013-01-10 21:02:00,20.0,1.0,-100.00,SW,232,2.0,7.0,43,0.00,,,0.00,0.000000,,2013-01-11 04:02:00,
2013-01-10 21:33:00,21.0,5.0,-100.00,SSE,151,5.0,10.0,50,0.00,,,-99.99,0.000000,,2013-01-11 04:33:00,
2013-01-10 21:43:00,21.0,5.0,-100.00,SSE,151,5.0,10.0,50,0.00,,,-99.99,0.000000,,2013-01-11 04:43:00,
2013-01-10 21:53:00,21.0,5.0,-100.00,SSE,151,5.0,10.0,50,0.00,,,-99.99,0.000000,,2013-01-11 04:53:00,
2013-01-10 22:03:00,21.0,5.0,-100.00,SSE,151,5.0,10.0,50,0.00,,,-99.99,0.000000,,2013-01-11 05:03:00,
2013-01-10 22:33:00,22.0,10.0,-100.00,SSE,150,8.0,15.0,59,0.00,,,0.00,0.000000,,2013-01-11 05:33:00,
2013-01-10 22:43:00,22.0,10.0,-100.00,SSE,150,8.0,15.0,59,0.00,,,0.00,0.000000,,2013-01-11 05:43:00,
2013-01-10 22:53:00,22.0,10.0,-100.00,SSE,150,8.0,15.0,59,0.00,,,0.00,0.000000,,2013-01-11 05:53:00,
2013-01-10 23:03:00,22.0,10.0,-100.00,SSE,150,8.0,15.0,59,0.00,,,0.00,0.000000,,2013-01-11 06:03:00,
2013-01-10 23:33:00,20.0,8.0,-100.00,South,187,6.0,18.0,59,0.00,,,0.00,0.000000,,2013-01-11 06:33:00,
2013-01-10 23:42:00,20.0,8.0,-100.00,South,187,6.0,18.0,59,0.00,,,0.00,0.000000,,2013-01-11 06:42:00,
2013-01-10 23:52:00,20.0,8.0,-100.00,South,187,6.0,18.0,59,0.00,,,0.00,0.000000,,2013-01-11 06:52:00,